NCAR-RAP Real-Time Weather Data

Output produced by METARs form (06 May 2021  17:02 UTC)
found at http://weather.rap.ucar.edu/surface/
 
KBPI 061653Z AUTO 18007KT 10SM CLR 12/M05 A3034 RMK AO2 SLP235 T01221050
KBPI 061553Z AUTO VRB04KT 10SM CLR 09/M03 A3036 RMK AO2 SLP238 T00941033
KBPI 061453Z AUTO 09006KT 10SM CLR 06/M04 A3037 RMK AO2 SLP248 T00611044 50003
KBPI 061353Z AUTO 00000KT 10SM CLR 00/M04 A3037 RMK AO2 SLP250 T00001039
KBPI 061253Z AUTO 11003KT 10SM CLR M03/M06 A3037 RMK AO2 SLP250 T10331056
KBPI 061153Z AUTO 00000KT 10SM CLR M04/M07 A3036 RMK AO2 SLP247 T10391067 10017 21061 51004
KBPI 061053Z AUTO 07004KT 10SM CLR M04/M06 A3035 RMK AO2 SLP248 T10441061
KBPI 060953Z AUTO 13004KT 10SM CLR M04/M06 A3035 RMK AO2 SLP246 T10441061
KBPI 060853Z AUTO 05003KT 10SM CLR M02/M06 A3034 RMK AO2 SLP238 T10221056 50000
KBPI 060753Z AUTO 22003KT 10SM CLR M01/M05 A3036 RMK AO2 SLP243 T10061050
KBPI 060653Z AUTO 05007KT 10SM CLR 01/M04 A3035 RMK AO2 SLP240 T00061044 401501033
KBPI 060553Z AUTO VRB03KT 10SM CLR M01/M04 A3034 RMK AO2 SLP244 T10061044 10144 21006 51010
KBPI 060453Z AUTO 22004KT 10SM CLR 01/M04 A3034 RMK AO2 SLP243 T00111044
KBPI 060353Z AUTO 35009KT 10SM CLR 04/M04 A3033 RMK AO2 SLP233 T00441044